Time;durP1;ratioP1;P1;durP2;ratioP2;P2;SDS_P1;SDS_P2;PMS_P1;PMS_P2;Temp;Humidity;BMP_temperature;BMP_pressure;BME280_temperature;BME280_humidity;BME280_pressure;Samples;Min_cycle;Max_cycle;Signal;HPM_P1;HPM_P2
2022/06/28 00:00:45;;;;;;;;;;;;;;;15.06;67.58;101968.44;5008546;28;19913;-89
2022/06/28 00:03:10;;;;;;;;;;;;;;;15.03;67.19;101966.81;5002647;28;19925;-90
2022/06/28 00:05:35;;;;;;;;;;;;;;;15.00;67.70;101968.72;5005999;28;19969;-89
2022/06/28 00:08:01;;;;;;;;;;;;;;;14.96;67.28;101967.09;4992139;28;19918;-89
2022/06/28 00:10:26;;;;;;;;;;;;;;;14.94;67.68;101975.16;4990968;28;19909;-89
2022/06/28 00:12:51;;;;;;;;;;;;;;;14.97;67.17;101976.84;4987892;28;20429;-89
2022/06/28 00:18:01;;;;;;;;;;;;;;;14.95;67.67;101963.56;4984936;28;20386;-89
2022/06/28 00:20:26;;;;;;;;;;;;;;;14.95;68.14;101966.25;4989118;28;19917;-90
2022/06/28 00:22:52;;;;;;;;;;;;;;;14.94;67.52;101964.50;4991991;28;19960;-89
2022/06/28 00:25:17;;;;;;;;;;;;;;;14.92;68.15;101958.41;4991308;28;19917;-89
2022/06/28 00:27:42;;;;;;;;;;;;;;;14.90;68.02;101956.72;4992194;28;19952;-89
2022/06/28 00:30:08;;;;;;;;;;;;;;;14.82;67.74;101972.13;4991368;28;19913;-90
2022/06/28 00:32:34;;;;;;;;;;;;;;;14.82;67.45;101978.31;4993239;28;19968;-90
2022/06/28 00:35:00;;;;;;;;;;;;;;;14.82;67.58;101977.44;4990881;28;20578;-89
2022/06/28 00:37:26;;;;;;;;;;;;;;;14.80;67.89;101981.03;4990068;28;19914;-89
2022/06/28 00:39:51;;;;;;;;;;;;;;;14.79;67.60;101975.78;4990634;28;19921;-89
2022/06/28 00:42:16;;;;;;;;;;;;;;;14.78;67.33;101982.00;4990579;28;19913;-89
2022/06/28 00:44:42;;;;;;;;;;;;;;;14.74;67.85;101986.63;4987076;28;19921;-90
2022/06/28 00:47:09;;;;;;;;;;;;;;;14.72;67.39;101983.13;4988545;28;19920;-89
2022/06/28 00:49:38;;;;;;;;;;;;;;;14.70;67.49;101989.44;4990147;28;19917;-89
2022/06/28 00:52:03;;;;;;;;;;;;;;;14.70;67.65;101987.66;4990298;28;20115;-89
2022/06/28 00:54:29;;;;;;;;;;;;;;;14.68;67.75;101978.84;4986622;28;20425;-89
2022/06/28 00:56:54;;;;;;;;;;;;;;;14.62;67.82;101988.88;4987983;28;20424;-89
2022/06/28 00:59:19;;;;;;;;;;;;;;;14.62;67.73;101994.19;4989873;28;19917;-89
2022/06/28 01:01:45;;;;;;;;;;;;;;;14.59;67.76;101994.31;4991833;28;19925;-90
2022/06/28 01:04:10;;;;;;;;;;;;;;;14.59;68.33;101983.66;5009805;28;20262;-89
2022/06/28 01:06:37;;;;;;;;;;;;;;;14.56;68.12;101983.81;5010423;28;19909;-89
2022/06/28 01:09:03;;;;;;;;;;;;;;;14.54;68.30;101986.50;5009495;28;20550;-89
2022/06/28 01:11:28;;;;;;;;;;;;;;;14.52;68.02;101983.91;5009951;28;19917;-89
2022/06/28 01:13:54;;;;;;;;;;;;;;;14.50;68.19;101983.13;4991980;28;19963;-89
2022/06/28 01:16:20;;;;;;;;;;;;;;;14.50;68.16;101984.88;5006440;28;19910;-88
2022/06/28 01:18:46;;;;;;;;;;;;;;;14.47;68.18;101983.19;5007179;28;19920;-89
2022/06/28 01:21:12;;;;;;;;;;;;;;;14.47;67.86;101991.16;5005641;28;19918;-89
2022/06/28 01:23:37;;;;;;;;;;;;;;;14.44;68.32;101993.06;5000532;28;19917;-89
2022/06/28 01:26:03;;;;;;;;;;;;;;;14.34;68.34;101997.00;5014905;28;19913;-89
2022/06/28 01:28:28;;;;;;;;;;;;;;;14.28;68.33;101995.44;5006895;28;19920;-89
2022/06/28 01:30:53;;;;;;;;;;;;;;;14.24;68.47;101993.81;5005538;28;20399;-89
2022/06/28 01:33:19;;;;;;;;;;;;;;;14.24;68.49;101997.34;5005411;28;20296;-89
2022/06/28 01:35:44;;;;;;;;;;;;;;;14.25;68.56;101996.41;5008658;28;19913;-89
2022/06/28 01:38:10;;;;;;;;;;;;;;;14.25;68.99;101991.09;5008460;28;20281;-89
2022/06/28 01:40:35;;;;;;;;;;;;;;;14.23;68.87;102005.41;5008541;28;19913;-89
2022/06/28 01:43:00;;;;;;;;;;;;;;;14.19;68.20;102001.09;5006545;28;19917;-89
2022/06/28 01:45:27;;;;;;;;;;;;;;;14.16;69.09;102003.88;5012843;28;19929;-89
2022/06/28 01:47:53;;;;;;;;;;;;;;;14.12;68.52;102000.44;5003950;28;19913;-89
2022/06/28 01:50:18;;;;;;;;;;;;;;;14.10;68.43;102007.63;5008442;28;19913;-89
2022/06/28 01:52:43;;;;;;;;;;;;;;;14.11;68.66;102006.69;5006964;28;19909;-89
2022/06/28 01:55:09;;;;;;;;;;;;;;;14.10;68.14;102007.63;5009996;28;19913;-89
2022/06/28 01:57:34;;;;;;;;;;;;;;;14.07;68.24;102006.84;5011003;28;19913;-89
2022/06/28 01:59:59;;;;;;;;;;;;;;;14.03;68.33;102014.06;5016409;28;19919;-89
2022/06/28 02:02:24;;;;;;;;;;;;;;;14.01;68.57;102013.28;4999408;28;20028;-89
2022/06/28 02:04:50;;;;;;;;;;;;;;;13.95;68.63;102014.38;5010105;28;20331;-89
2022/06/28 02:07:15;;;;;;;;;;;;;;;13.95;68.80;102006.38;5007727;28;20036;-89
2022/06/28 02:09:41;;;;;;;;;;;;;;;13.90;68.83;102010.13;5003471;28;20023;-89
2022/06/28 02:12:06;;;;;;;;;;;;;;;13.86;68.45;102012.03;5001611;28;19917;-90
2022/06/28 02:14:31;;;;;;;;;;;;;;;13.86;69.10;102012.03;5006197;28;20560;-89
2022/06/28 02:16:57;;;;;;;;;;;;;;;13.81;68.83;102018.44;5010681;28;19916;-89
2022/06/28 02:19:22;;;;;;;;;;;;;;;13.70;69.02;102013.47;5016442;28;20359;-89
2022/06/28 02:21:47;;;;;;;;;;;;;;;13.64;69.00;102025.19;5007024;28;20245;-89
2022/06/28 02:24:13;;;;;;;;;;;;;;;13.64;68.48;102024.31;5006831;28;19921;-89
2022/06/28 02:26:38;;;;;;;;;;;;;;;13.51;68.96;102031.81;5007815;28;20322;-89
2022/06/28 02:29:04;;;;;;;;;;;;;;;13.43;69.53;102034.75;5014148;28;19913;-89
2022/06/28 02:31:29;;;;;;;;;;;;;;;13.42;69.72;102029.47;5007072;28;20260;-89
2022/06/28 02:33:54;;;;;;;;;;;;;;;13.41;69.29;102039.22;5005572;28;19972;-89
2022/06/28 02:41:45;;;;;;;;;;;;;;;13.28;70.27;102045.84;5006787;28;20009;-89
2022/06/28 02:44:10;;;;;;;;;;;;;;;13.17;70.96;102046.19;5007085;28;20008;-89
2022/06/28 02:46:36;;;;;;;;;;;;;;;13.17;70.19;102047.97;5004596;28;20370;-88
2022/06/28 02:49:01;;;;;;;;;;;;;;;13.10;69.85;102060.53;5012078;28;20384;-89
2022/06/28 02:51:26;;;;;;;;;;;;;;;13.11;69.90;102059.66;4995013;28;20179;-89
2022/06/28 02:53:52;;;;;;;;;;;;;;;13.09;70.08;102056.16;5011945;28;19924;-89
2022/06/28 02:56:17;;;;;;;;;;;;;;;13.10;70.18;102065.84;5011407;28;20359;-89
2022/06/28 02:58:43;;;;;;;;;;;;;;;13.05;70.13;102072.22;5014947;28;19959;-89
2022/06/28 03:01:08;;;;;;;;;;;;;;;13.06;70.02;102071.34;4999079;28;19914;-89
2022/06/28 03:03:33;;;;;;;;;;;;;;;13.10;70.12;102073.81;5017683;28;19921;-89
2022/06/28 03:05:58;;;;;;;;;;;;;;;13.09;69.76;102077.41;5008072;28;19917;-89
2022/06/28 03:08:23;;;;;;;;;;;;;;;13.06;70.15;102077.53;4991035;28;19924;-89
2022/06/28 03:10:49;;;;;;;;;;;;;;;13.08;69.92;102078.31;5010101;28;20008;-89
2022/06/28 03:13:14;;;;;;;;;;;;;;;13.07;70.24;102076.59;5012597;28;19952;-89
2022/06/28 03:15:39;;;;;;;;;;;;;;;13.10;69.70;102076.47;5010231;28;19983;-89
2022/06/28 03:18:04;;;;;;;;;;;;;;;13.12;69.71;102085.28;5010769;28;20387;-89
2022/06/28 03:20:30;;;;;;;;;;;;;;;13.12;69.56;102085.28;4999850;28;19917;-89
2022/06/28 03:22:55;;;;;;;;;;;;;;;13.12;70.01;102079.09;5004099;28;19952;-89
2022/06/28 03:25:20;;;;;;;;;;;;;;;13.12;69.41;102087.06;5010835;28;19921;-88
2022/06/28 03:27:46;;;;;;;;;;;;;;;13.00;70.82;102086.50;5012761;28;19910;-89
2022/06/28 03:30:11;;;;;;;;;;;;;;;12.90;69.98;102084.19;5009234;28;20429;-89
2022/06/28 03:32:36;;;;;;;;;;;;;;;12.92;70.64;102083.25;5021727;28;20407;-89
2022/06/28 03:35:02;;;;;;;;;;;;;;;12.85;70.60;102097.59;5014051;28;19941;-89
2022/06/28 03:37:27;;;;;;;;;;;;;;;12.85;70.59;102097.59;5011167;28;19913;-89
2022/06/28 03:39:52;;;;;;;;;;;;;;;12.85;70.32;102094.06;5010340;28;19953;-89
2022/06/28 03:42:17;;;;;;;;;;;;;;;12.91;69.97;102091.22;5010372;28;20250;-89
2022/06/28 03:44:43;;;;;;;;;;;;;;;12.86;71.22;102098.47;5008138;28;19927;-89
2022/06/28 03:47:08;;;;;;;;;;;;;;;12.84;70.33;102101.16;5010976;28;19913;-89
2022/06/28 03:49:33;;;;;;;;;;;;;;;12.88;70.51;102104.63;5010900;28;20000;-89
2022/06/28 03:51:58;;;;;;;;;;;;;;;12.89;70.58;102107.22;5014042;28;20471;-89
2022/06/28 03:54:25;;;;;;;;;;;;;;;12.83;70.99;102102.09;5008411;28;20008;-89
2022/06/28 03:56:50;;;;;;;;;;;;;;;12.82;70.83;102102.13;5006923;28;20000;-90
2022/06/28 03:59:15;;;;;;;;;;;;;;;12.83;70.60;102094.13;5015869;28;19917;-89
2022/06/28 04:01:40;;;;;;;;;;;;;;;12.76;71.55;102098.72;5014010;28;19913;-89
2022/06/28 04:04:05;;;;;;;;;;;;;;;12.72;72.11;102102.38;5017414;28;19921;-89
2022/06/28 04:06:31;;;;;;;;;;;;;;;12.64;72.52;102099.09;5011265;28;20010;-89
2022/06/28 04:08:56;;;;;;;;;;;;;;;12.59;71.59;102106.31;5010538;28;19956;-90
2022/06/28 04:11:21;;;;;;;;;;;;;;;12.67;71.40;102101.66;5008225;28;19991;-90
2022/06/28 04:13:47;;;;;;;;;;;;;;;12.75;70.67;102101.44;5010097;28;19923;-89
2022/06/28 04:16:13;;;;;;;;;;;;;;;12.75;70.34;102104.97;5011114;28;20337;-89
2022/06/28 04:18:40;;;;;;;;;;;;;;;12.76;71.15;102096.06;5009917;28;19917;-89
2022/06/28 04:21:05;;;;;;;;;;;;;;;12.77;70.96;102104.91;5007704;28;19983;-89
2022/06/28 04:23:30;;;;;;;;;;;;;;;12.83;71.02;102106.53;5014294;28;19916;-89
2022/06/28 04:25:56;;;;;;;;;;;;;;;12.91;70.96;102113.31;5010742;28;19928;-89
2022/06/28 04:28:21;;;;;;;;;;;;;;;12.97;71.19;102110.50;5008123;28;19917;-89
2022/06/28 04:30:46;;;;;;;;;;;;;;;13.04;71.10;102108.53;5008195;28;19913;-89
2022/06/28 04:33:11;;;;;;;;;;;;;;;13.09;70.07;102108.41;5007977;28;20447;-89
2022/06/28 04:35:37;;;;;;;;;;;;;;;13.13;70.14;102105.59;5009969;28;19917;-89
2022/06/28 04:38:02;;;;;;;;;;;;;;;13.20;70.38;102106.31;5003011;28;19917;-89
2022/06/28 04:40:27;;;;;;;;;;;;;;;13.24;70.56;102106.19;5009196;28;19914;-89
2022/06/28 04:42:52;;;;;;;;;;;;;;;13.30;70.41;102109.56;5004735;28;20008;-89
2022/06/28 04:45:18;;;;;;;;;;;;;;;13.35;70.51;102104.97;5009310;28;20254;-88
2022/06/28 04:47:43;;;;;;;;;;;;;;;13.40;69.96;102097.72;5013577;28;20403;-90
2022/06/28 04:50:08;;;;;;;;;;;;;;;13.44;70.31;102104.69;5007651;28;20491;-89
2022/06/28 04:52:34;;;;;;;;;;;;;;;13.49;70.48;102116.03;5013594;28;19941;-90
2022/06/28 04:54:59;;;;;;;;;;;;;;;13.52;70.49;102114.16;5008801;28;19978;-89
2022/06/28 04:57:24;;;;;;;;;;;;;;;13.58;70.53;102109.56;5013851;28;19937;-89
2022/06/28 04:59:49;;;;;;;;;;;;;;;13.62;69.98;102111.22;5010396;28;19913;-89
2022/06/28 05:02:14;;;;;;;;;;;;;;;13.63;70.81;102116.47;5009388;28;20408;-90
2022/06/28 05:04:40;;;;;;;;;;;;;;;13.64;70.16;102112.88;5012397;28;20308;-89
2022/06/28 05:07:05;;;;;;;;;;;;;;;13.69;71.76;102112.72;5008537;28;19964;-89
2022/06/28 05:09:30;;;;;;;;;;;;;;;13.74;70.49;102111.66;5006961;28;20019;-90
2022/06/28 05:11:55;;;;;;;;;;;;;;;13.76;69.75;102124.91;5009996;28;19913;-90
2022/06/28 05:14:20;;;;;;;;;;;;;;;13.75;70.06;102116.03;5007848;28;20090;-90
2022/06/28 05:16:46;;;;;;;;;;;;;;;13.76;70.89;102115.16;5005946;28;20017;-90
2022/06/28 05:19:11;;;;;;;;;;;;;;;13.78;70.25;102123.06;5001794;28;19952;-90
2022/06/28 05:21:37;;;;;;;;;;;;;;;13.80;70.87;102121.22;5010965;28;19919;-90
2022/06/28 05:24:02;;;;;;;;;;;;;;;13.84;69.95;102122.84;5011321;28;19932;-90
2022/06/28 05:26:27;;;;;;;;;;;;;;;13.89;70.95;102115.59;5010700;28;19916;-89
2022/06/28 05:28:52;;;;;;;;;;;;;;;13.95;70.69;102107.41;5012442;28;20328;-89
2022/06/28 05:31:18;;;;;;;;;;;;;;;14.01;71.29;102101.03;5001726;28;20354;-89
2022/06/28 05:33:43;;;;;;;;;;;;;;;14.10;71.42;102103.38;5009391;28;19959;-90
2022/06/28 05:36:08;;;;;;;;;;;;;;;14.17;69.30;102112.84;5008255;28;20346;-90
2022/06/28 05:38:33;;;;;;;;;;;;;;;14.26;69.81;102114.31;5008980;28;19967;-89
2022/06/28 05:40:58;;;;;;;;;;;;;;;14.29;69.86;102098.25;5006646;28;19913;-90
2022/06/28 05:43:24;;;;;;;;;;;;;;;14.35;70.51;102099.84;5003378;28;19948;-90
2022/06/28 05:45:49;;;;;;;;;;;;;;;14.38;70.03;102100.59;5008879;28;19917;-90
2022/06/28 05:48:14;;;;;;;;;;;;;;;14.44;70.13;102102.16;5007839;28;19913;-89
2022/06/28 05:50:39;;;;;;;;;;;;;;;14.52;71.10;102106.31;5007149;28;19913;-90
2022/06/28 05:53:05;;;;;;;;;;;;;;;14.58;70.91;102089.25;5008538;28;19955;-89
2022/06/28 05:55:31;;;;;;;;;;;;;;;14.66;70.30;102092.50;5005435;28;19927;-90
2022/06/28 05:57:56;;;;;;;;;;;;;;;14.70;69.44;102091.47;5014700;28;19999;-89
2022/06/28 06:00:21;;;;;;;;;;;;;;;14.79;71.27;102087.59;5013354;28;20024;-90
2022/06/28 06:02:47;;;;;;;;;;;;;;;14.83;71.61;102094.56;5003207;28;19921;-90
2022/06/28 06:05:12;;;;;;;;;;;;;;;14.90;71.18;102096.03;5013478;28;19917;-90
2022/06/28 06:07:37;;;;;;;;;;;;;;;14.94;70.08;102096.78;5007106;28;20024;-91
2022/06/28 06:10:02;;;;;;;;;;;;;;;14.99;70.22;102101.00;5010491;28;19928;-90
2022/06/28 06:12:28;;;;;;;;;;;;;;;15.05;69.78;102094.56;5004486;28;19917;-90
2022/06/28 06:14:53;;;;;;;;;;;;;;;15.12;71.11;102093.41;5007201;28;19948;-90
2022/06/28 06:17:18;;;;;;;;;;;;;;;15.27;69.18;102099.94;5005248;28;20390;-90
2022/06/28 06:19:44;;;;;;;;;;;;;;;15.55;69.06;102102.34;5006351;28;20388;-90
2022/06/28 06:22:09;;;;;;;;;;;;;;;15.81;68.10;102106.66;5010272;28;20397;-91
2022/06/28 06:24:34;;;;;;;;;;;;;;;16.03;67.40;102101.25;5007602;28;20083;-90
2022/06/28 06:27:00;;;;;;;;;;;;;;;16.16;66.14;102106.94;5012479;28;19920;-90
2022/06/28 06:29:26;;;;;;;;;;;;;;;16.30;66.86;102108.06;5010213;28;19913;-90
2022/06/28 06:31:52;;;;;;;;;;;;;;;16.45;66.11;102111.00;5013863;28;19913;-89
2022/06/28 06:34:17;;;;;;;;;;;;;;;16.59;66.32;102114.78;5014190;28;20388;-90
2022/06/28 06:36:45;;;;;;;;;;;;;;;16.73;65.89;102116.88;5006911;28;20301;-89
2022/06/28 06:39:10;;;;;;;;;;;;;;;16.69;65.59;102107.22;5006273;28;20240;-89
2022/06/28 06:41:35;;;;;;;;;;;;;;;16.70;65.77;102122.34;5011525;28;20435;-90
2022/06/28 06:44:02;;;;;;;;;;;;;;;16.79;66.13;102116.59;5010839;28;19917;-90
2022/06/28 06:46:27;;;;;;;;;;;;;;;16.97;64.95;102133.59;5008883;28;20292;-90
2022/06/28 06:48:52;;;;;;;;;;;;;;;16.92;64.61;102119.56;5012655;28;19913;-90
2022/06/28 06:51:18;;;;;;;;;;;;;;;17.01;64.40;102118.25;5006879;28;19913;-90
2022/06/28 06:53:43;;;;;;;;;;;;;;;17.03;64.41;102122.63;5011168;28;19917;-90
2022/06/28 06:56:08;;;;;;;;;;;;;;;17.14;64.77;102123.91;5009431;28;19917;-90
2022/06/28 06:58:34;;;;;;;;;;;;;;;17.22;62.91;102124.41;5009442;28;19928;-90
2022/06/28 07:00:59;;;;;;;;;;;;;;;17.15;63.48;102134.50;5011083;28;19914;-90
2022/06/28 07:03:24;;;;;;;;;;;;;;;17.39;64.20;102128.94;5013762;28;19922;-90
2022/06/28 07:05:49;;;;;;;;;;;;;;;17.62;63.08;102130.50;5010076;28;19948;-89
2022/06/28 07:08:15;;;;;;;;;;;;;;;17.67;62.96;102136.47;5012769;28;19913;-90
2022/06/28 07:10:40;;;;;;;;;;;;;;;17.71;61.06;102132.72;5009088;28;19921;-90
2022/06/28 07:13:05;;;;;;;;;;;;;;;17.60;59.07;102134.13;5010776;28;20395;-94
2022/06/28 07:15:30;;;;;;;;;;;;;;;17.45;61.77;102132.19;5009763;28;20036;-89
2022/06/28 07:17:56;;;;;;;;;;;;;;;17.44;60.80;102132.25;5010572;28;19914;-90
2022/06/28 07:20:21;;;;;;;;;;;;;;;17.62;62.17;102131.38;5012095;28;19920;-89
2022/06/28 07:22:46;;;;;;;;;;;;;;;17.79;60.52;102128.75;5011924;28;19940;-91
2022/06/28 07:25:13;;;;;;;;;;;;;;;17.75;60.47;102129.84;5008394;28;20440;-90
2022/06/28 07:27:38;;;;;;;;;;;;;;;17.96;61.10;102133.28;5007746;28;19925;-89
2022/06/28 07:30:04;;;;;;;;;;;;;;;18.22;60.98;102136.41;5009949;28;19940;-90
2022/06/28 07:32:29;;;;;;;;;;;;;;;18.66;60.74;102134.09;5013461;28;19913;-91
2022/06/28 07:34:54;;;;;;;;;;;;;;;19.50;57.94;102140.19;5008775;28;20718;-91
2022/06/28 07:37:19;;;;;;;;;;;;;;;19.81;53.19;102135.75;5006162;28;20372;-91
2022/06/28 07:39:45;;;;;;;;;;;;;;;20.23;53.54;102129.66;5010076;28;19913;-91
2022/06/28 07:42:10;;;;;;;;;;;;;;;20.92;54.13;102132.66;5012807;28;19917;-91
2022/06/28 07:44:35;;;;;;;;;;;;;;;21.57;53.67;102132.94;5010559;28;20011;-91
2022/06/28 07:47:00;;;;;;;;;;;;;;;22.12;49.91;102127.44;5015503;28;19979;-91
2022/06/28 07:52:33;;;;;;;;;;;;;;;22.76;48.94;102126.63;5008404;28;19964;-92
2022/06/28 07:54:55;;;;;;;;;;;;;;;23.73;44.50;102126.69;5012359;28;20430;-91
2022/06/28 07:57:20;;;;;;;;;;;;;;;23.91;48.97;102125.31;5009962;28;19913;-91
2022/06/28 07:59:45;;;;;;;;;;;;;;;24.13;46.27;102119.13;5008074;28;20012;-91
2022/06/28 08:02:11;;;;;;;;;;;;;;;24.26;47.90;102124.44;5005846;28;20317;-91
2022/06/28 08:04:36;;;;;;;;;;;;;;;24.27;46.20;102120.75;5006242;28;20391;-91
2022/06/28 08:07:01;;;;;;;;;;;;;;;24.36;45.55;102111.06;5010680;28;19917;-91
2022/06/28 08:09:26;;;;;;;;;;;;;;;24.21;43.19;102113.13;5018368;28;19920;-92
2022/06/28 08:11:51;;;;;;;;;;;;;;;24.33;41.30;102117.56;5008567;28;19924;-91
2022/06/28 08:14:17;;;;;;;;;;;;;;;24.37;43.46;102120.94;5009780;28;19913;-91
2022/06/28 08:16:42;;;;;;;;;;;;;;;24.35;41.37;102106.66;5010074;28;19916;-91
2022/06/28 08:19:07;;;;;;;;;;;;;;;24.69;43.48;102118.38;5003008;28;20308;-91
2022/06/28 08:21:32;;;;;;;;;;;;;;;24.90;43.35;102110.38;5003108;28;20344;-91
2022/06/28 08:23:57;;;;;;;;;;;;;;;25.59;40.92;102112.88;5016414;28;19984;-86
2022/06/28 08:26:23;;;;;;;;;;;;;;;25.94;40.79;102104.50;5007936;28;19913;-89
2022/06/28 08:28:48;;;;;;;;;;;;;;;25.80;37.96;102107.53;5007784;28;19917;-91
2022/06/28 08:31:13;;;;;;;;;;;;;;;26.00;40.99;102097.69;5006728;28;19943;-90
2022/06/28 08:33:38;;;;;;;;;;;;;;;26.04;39.69;102085.63;5003487;28;20264;-90
2022/06/28 08:36:04;;;;;;;;;;;;;;;26.22;33.62;102086.72;5007106;28;19913;-90
2022/06/28 08:38:29;;;;;;;;;;;;;;;26.34;38.92;102099.19;5006935;28;19917;-90
2022/06/28 08:40:54;;;;;;;;;;;;;;;26.64;38.31;102095.69;5006628;28;19913;-90
2022/06/28 08:43:20;;;;;;;;;;;;;;;26.93;35.61;102095.81;5007296;28;19914;-90
2022/06/28 08:45:45;;;;;;;;;;;;;;;27.03;37.87;102094.97;5009084;28;19971;-90
2022/06/28 08:48:20;;;;;;;;;;;;;;;27.03;35.82;102093.13;5009457;28;20284;-90
2022/06/28 08:50:49;;;;;;;;;;;;;;;26.60;36.54;102083.41;5010554;28;19924;-90
2022/06/28 08:53:15;;;;;;;;;;;;;;;26.94;36.82;102085.81;5008687;28;19917;-90
2022/06/28 08:55:40;;;;;;;;;;;;;;;26.47;33.94;102073.75;5008290;28;20373;-90
2022/06/28 08:58:06;;;;;;;;;;;;;;;25.95;33.95;102088.13;5003068;28;19913;-90
2022/06/28 09:00:32;;;;;;;;;;;;;;;25.68;36.26;102085.00;5005913;28;20000;-90
2022/06/28 09:02:57;;;;;;;;;;;;;;;25.73;35.99;102087.31;5009949;28;20044;-89
2022/06/28 09:05:23;;;;;;;;;;;;;;;25.78;36.90;102091.41;5011778;28;20289;-90
2022/06/28 09:07:50;;;;;;;;;;;;;;;25.54;32.31;102082.59;5006802;28;20364;-87
2022/06/28 09:10:15;;;;;;;;;;;;;;;25.10;37.38;102079.03;5006623;28;20054;-88
2022/06/28 09:12:40;;;;;;;;;;;;;;;25.13;35.21;102084.19;5007874;28;20004;-85
2022/06/28 09:15:06;;;;;;;;;;;;;;;24.76;37.37;102076.34;5003167;28;21146;-89
2022/06/28 09:17:33;;;;;;;;;;;;;;;24.82;37.27;102075.00;5012702;28;19958;-90
2022/06/28 09:19:59;;;;;;;;;;;;;;;24.74;39.01;102074.75;5007461;28;19939;-90
2022/06/28 09:22:41;;;;;;;;;;;;;;;24.99;39.12;102065.47;4999662;28;19938;-90
2022/06/28 09:25:23;;;;;;;;;;;;;;;25.16;38.72;102067.72;5002045;28;20377;-90
2022/06/28 09:27:48;;;;;;;;;;;;;;;25.38;36.41;102064.09;5003431;28;19936;-90
2022/06/28 09:30:13;;;;;;;;;;;;;;;25.39;38.77;102069.38;5007540;28;20040;-91
2022/06/28 09:32:39;;;;;;;;;;;;;;;25.32;38.37;102057.34;5017728;28;20252;-91
2022/06/28 09:35:07;;;;;;;;;;;;;;;25.29;39.08;102054.03;5005682;28;19964;-90
2022/06/28 09:37:38;;;;;;;;;;;;;;;25.13;39.08;102055.31;5004301;28;20008;-90
2022/06/28 09:40:14;;;;;;;;;;;;;;;25.36;38.76;102052.50;5002786;28;19921;-90
2022/06/28 09:42:40;;;;;;;;;;;;;;;25.62;38.62;102048.47;5003036;28;19920;-90
2022/06/28 09:45:06;;;;;;;;;;;;;;;25.60;37.06;102045.03;5004152;28;19918;-90
2022/06/28 09:47:31;;;;;;;;;;;;;;;25.52;38.40;102047.53;5007306;28;19913;-91
2022/06/28 09:49:56;;;;;;;;;;;;;;;25.84;38.25;102043.97;5003324;28;19916;-91
2022/06/28 09:52:26;;;;;;;;;;;;;;;26.05;35.31;102035.81;5003550;28;19921;-90
2022/06/28 09:54:53;;;;;;;;;;;;;;;25.93;37.17;102035.06;5010090;28;20018;-91
2022/06/28 09:57:20;;;;;;;;;;;;;;;25.79;38.04;102029.97;5002760;28;19917;-91
2022/06/28 09:59:45;;;;;;;;;;;;;;;25.95;37.53;102038.47;5010940;28;19960;-90
2022/06/28 10:02:15;;;;;;;;;;;;;;;26.09;37.15;102027.28;5005766;28;20381;-90
2022/06/28 10:04:40;;;;;;;;;;;;;;;25.98;36.67;102035.50;5006665;28;19921;-91
2022/06/28 10:07:08;;;;;;;;;;;;;;;25.99;37.44;102031.81;5012337;28;19935;-91
2022/06/28 10:09:34;;;;;;;;;;;;;;;25.65;36.92;102029.25;5009881;28;19917;-91
2022/06/28 10:15:01;;;;;;;;;;;;;;;26.25;37.67;102029.50;5010110;28;20123;-90
2022/06/28 10:17:29;;;;;;;;;;;;;;;26.36;33.67;102037.56;5006924;28;20240;-90
2022/06/28 10:19:56;;;;;;;;;;;;;;;26.38;36.84;102024.72;5015625;28;19925;-90
2022/06/28 10:22:21;;;;;;;;;;;;;;;26.64;36.63;102024.31;5002981;28;19921;-91
2022/06/28 10:24:55;;;;;;;;;;;;;;;26.93;36.71;102024.38;5006632;28;20035;-91
2022/06/28 10:27:21;;;;;;;;;;;;;;;27.16;34.43;102028.59;5003988;28;19913;-91
2022/06/28 10:29:58;;;;;;;;;;;;;;;27.23;36.52;102011.72;5006951;28;19960;-90
2022/06/28 10:32:50;;;;;;;;;;;;;;;27.54;35.40;102013.31;5008239;28;19952;-92
2022/06/28 10:35:31;;;;;;;;;;;;;;;27.33;34.93;102008.03;4998634;28;20292;-91
2022/06/28 10:38:08;;;;;;;;;;;;;;;27.10;35.41;102001.16;5007246;28;19913;-92
2022/06/28 10:40:47;;;;;;;;;;;;;;;27.16;36.46;101995.16;5011205;28;19924;-91
2022/06/28 10:43:12;;;;;;;;;;;;;;;27.30;34.99;101989.31;5011342;28;19913;-91
2022/06/28 10:45:58;;;;;;;;;;;;;;;27.30;35.80;101986.59;5004109;28;20394;-91
2022/06/28 10:48:23;;;;;;;;;;;;;;;27.66;36.24;101985.00;4990884;28;19913;-91
2022/06/28 10:51:01;;;;;;;;;;;;;;;28.08;35.08;101986.50;5005299;28;19913;-91
2022/06/28 10:53:33;;;;;;;;;;;;;;;28.42;34.16;101978.66;5005175;28;20309;-92
2022/06/28 10:56:10;;;;;;;;;;;;;;;28.73;35.41;101979.22;5007985;28;19910;-92
2022/06/28 10:58:53;;;;;;;;;;;;;;;28.13;32.71;101966.03;5007822;28;19921;-91
2022/06/28 11:01:18;;;;;;;;;;;;;;;27.79;33.74;101962.09;5003726;28;21164;-92
2022/06/28 11:04:06;;;;;;;;;;;;;;;27.08;35.71;101973.25;4991984;28;20315;-91
2022/06/28 11:06:55;;;;;;;;;;;;;;;27.39;34.84;101968.59;5007817;28;19994;-90
2022/06/28 11:09:23;;;;;;;;;;;;;;;27.39;32.60;101963.16;5006455;28;19935;-91
2022/06/28 11:12:07;;;;;;;;;;;;;;;27.32;35.00;101967.44;5008862;28;20273;-91
2022/06/28 11:14:35;;;;;;;;;;;;;;;27.21;34.52;101957.56;5000201;28;19920;-90
2022/06/28 11:17:01;;;;;;;;;;;;;;;27.19;34.51;101946.88;5006891;28;19914;-89
2022/06/28 11:19:27;;;;;;;;;;;;;;;27.30;34.93;101953.16;5009212;28;19918;-89
2022/06/28 11:21:55;;;;;;;;;;;;;;;27.88;34.42;101950.34;5010027;28;19939;-90
2022/06/28 11:24:21;;;;;;;;;;;;;;;28.07;32.52;101957.59;5004251;28;20289;-91
2022/06/28 11:29:32;;;;;;;;;;;;;;;27.65;33.63;101947.97;5009324;28;19920;-90
2022/06/28 11:31:57;;;;;;;;;;;;;;;27.44;35.04;101945.41;5012752;28;19924;-89
2022/06/28 11:34:25;;;;;;;;;;;;;;;28.11;34.31;101934.53;5011506;28;19917;-90
2022/06/28 11:36:53;;;;;;;;;;;;;;;28.35;33.75;101931.28;5011137;28;19913;-91
2022/06/28 11:39:21;;;;;;;;;;;;;;;28.11;34.50;101929.09;5023815;28;19920;-90
2022/06/28 11:41:50;;;;;;;;;;;;;;;28.30;32.62;101931.72;5016978;28;19940;-91
2022/06/28 11:44:16;;;;;;;;;;;;;;;28.59;33.00;101931.59;5004443;28;19924;-89
2022/06/28 11:46:42;;;;;;;;;;;;;;;29.15;32.94;101930.50;4999051;28;19914;-90
2022/06/28 11:49:07;;;;;;;;;;;;;;;29.46;33.60;101927.31;5006161;28;20168;-90
2022/06/28 11:51:32;;;;;;;;;;;;;;;29.48;32.64;101931.63;5008937;28;19920;-90
2022/06/28 11:53:59;;;;;;;;;;;;;;;29.14;30.85;101923.31;5003227;28;20392;-88
2022/06/28 11:56:24;;;;;;;;;;;;;;;28.94;33.63;101927.19;5010651;28;20368;-89
2022/06/28 11:58:50;;;;;;;;;;;;;;;28.65;33.18;101927.41;5009208;28;19917;-88
2022/06/28 12:01:16;;;;;;;;;;;;;;;29.01;32.37;101920.16;5006138;28;19917;-88
2022/06/28 12:03:44;;;;;;;;;;;;;;;29.02;31.68;101921.88;5012268;28;19921;-89
2022/06/28 12:06:10;;;;;;;;;;;;;;;28.65;29.61;101921.97;5009100;28;19996;-91
2022/06/28 12:08:54;;;;;;;;;;;;;;;27.48;32.34;101926.13;5012044;28;20345;-90
2022/06/28 12:11:30;;;;;;;;;;;;;;;27.38;34.47;101929.72;5004367;28;20323;-91
2022/06/28 12:14:09;;;;;;;;;;;;;;;27.65;33.15;101925.34;5004951;28;19925;-90
2022/06/28 12:16:34;;;;;;;;;;;;;;;27.63;33.68;101919.22;5002904;28;20086;-90
2022/06/28 12:19:00;;;;;;;;;;;;;;;28.10;34.07;101922.81;5010840;28;19913;-90
2022/06/28 12:21:26;;;;;;;;;;;;;;;28.21;33.15;101925.34;5011266;28;20312;-90
2022/06/28 12:23:53;;;;;;;;;;;;;;;27.89;33.45;101928.47;5010018;28;19970;-91
2022/06/28 12:26:19;;;;;;;;;;;;;;;27.57;34.78;101912.50;5007900;28;19931;-90
2022/06/28 12:28:44;;;;;;;;;;;;;;;27.89;34.77;101914.88;5010250;28;19920;-91
2022/06/28 12:31:10;;;;;;;;;;;;;;;27.94;34.64;101920.72;5003159;28;19976;-91
2022/06/28 12:33:35;;;;;;;;;;;;;;;27.82;35.13;101916.47;5012613;28;19943;-90
2022/06/28 12:36:00;;;;;;;;;;;;;;;27.55;35.01;101916.38;4994775;28;20495;-90
2022/06/28 12:38:26;;;;;;;;;;;;;;;27.80;33.32;101915.78;5013926;28;20336;-89
2022/06/28 12:40:51;;;;;;;;;;;;;;;28.35;33.41;101914.97;5008407;28;19964;-90
2022/06/28 12:43:16;;;;;;;;;;;;;;;28.84;32.60;101919.09;5005720;28;20391;-90
2022/06/28 12:45:41;;;;;;;;;;;;;;;29.14;33.00;101906.13;5007879;28;20032;-90
2022/06/28 12:48:07;;;;;;;;;;;;;;;28.92;32.69;101905.59;5006312;28;19949;-90